createdAt,value
2022-11-15T00:07:58.321Z,10.20
2022-11-15T00:10:44.358Z,10.10
2022-11-15T00:16:17.699Z,10.20
2022-11-15T00:19:03.895Z,10.30
2022-11-15T00:49:31.075Z,10.20
2022-11-15T00:52:16.407Z,10.00
2022-11-15T00:55:01.852Z,9.90
2022-11-15T00:57:47.872Z,9.90
2022-11-15T01:03:19.449Z,10.10
2022-11-15T01:06:05.265Z,10.00
2022-11-15T01:08:50.723Z,10.40
2022-11-15T01:14:25.513Z,10.40
2022-11-15T01:17:11.281Z,10.30
2022-11-15T01:19:56.805Z,10.30
2022-11-15T01:22:42.119Z,10.40
2022-11-15T01:31:05.319Z,10.40
2022-11-15T01:36:37.675Z,11.40
2022-11-15T01:39:23.273Z,10.00
2022-11-15T01:42:14.477Z,10.00
2022-11-15T01:45:00.065Z,9.90
2022-11-15T01:47:51.123Z,10.00
2022-11-15T01:50:39.605Z,9.80
2022-11-15T01:53:26.838Z,10.00
2022-11-15T01:56:25.282Z,9.90
2022-11-15T01:59:12.579Z,10.10
2022-11-15T02:01:58.228Z,10.10
2022-11-15T02:04:47.346Z,10.00
2022-11-15T02:10:23.723Z,10.20
2022-11-15T02:13:09.250Z,10.30
2022-11-15T02:16:15.557Z,10.40
2022-11-15T02:19:32.981Z,10.20
2022-11-15T02:25:37.535Z,9.50
2022-11-15T02:29:02.929Z,10.50
2022-11-15T02:32:38.636Z,10.30
2022-11-15T02:35:58.639Z,10.50
2022-11-15T02:39:00.529Z,10.50
2022-11-15T02:42:05.497Z,10.50
2022-11-15T02:44:52.268Z,10.40
2022-11-15T02:47:45.321Z,10.50
2022-11-15T02:50:33.930Z,10.30
2022-11-15T02:53:21.897Z,10.30
2022-11-15T02:56:12.363Z,10.40
2022-11-15T02:59:54.446Z,10.40
2022-11-15T03:03:10.385Z,10.10
2022-11-15T03:06:16.767Z,9.80
2022-11-15T03:09:18.948Z,9.80
2022-11-15T03:12:27.341Z,9.90
2022-11-15T03:15:27.053Z,9.60
2022-11-15T03:18:22.010Z,9.40
2022-11-15T03:21:10.871Z,9.60
2022-11-15T03:23:59.018Z,9.40
2022-11-15T03:26:46.835Z,9.40
2022-11-15T03:29:40.805Z,9.50
2022-11-15T03:32:30.461Z,9.40
2022-11-15T03:35:22.103Z,10.60
2022-11-15T03:38:31.297Z,9.40
2022-11-15T03:41:43.427Z,9.20
2022-11-15T03:44:55.440Z,9.20
2022-11-15T03:48:01.309Z,9.20
2022-11-15T03:50:48.403Z,9.10
2022-11-15T03:53:34.360Z,9.00
2022-11-15T03:56:20.086Z,9.50
2022-11-15T04:01:51.556Z,9.10
2022-11-15T04:07:23.202Z,9.10
2022-11-15T04:10:12.393Z,9.10
2022-11-15T04:18:30.477Z,8.90
2022-11-15T04:21:35.427Z,8.60
2022-11-15T04:27:06.913Z,8.90
2022-11-15T04:32:38.412Z,8.80
2022-11-15T04:38:11.912Z,8.70
2022-11-15T04:52:02.197Z,8.70
2022-11-15T04:57:33.842Z,8.70
2022-11-15T05:00:19.458Z,8.80
2022-11-15T05:11:42.299Z,8.60
2022-11-15T05:14:30.647Z,8.70
2022-11-15T05:17:16.153Z,8.60
2022-11-15T05:20:01.716Z,8.60
2022-11-15T05:25:33.404Z,8.60
2022-11-15T05:28:18.770Z,8.60
2022-11-15T05:31:17.412Z,8.60
2022-11-15T05:34:06.183Z,8.60
2022-11-15T05:36:51.911Z,8.50
2022-11-15T05:39:37.366Z,8.60
2022-11-15T05:45:10.489Z,8.50
2022-11-15T05:47:58.650Z,8.20
2022-11-15T05:50:48.132Z,8.30
2022-11-15T05:53:34.320Z,8.50
2022-11-15T05:56:20.258Z,8.40
2022-11-15T05:59:06.658Z,8.70
2022-11-15T06:10:10.802Z,8.70
2022-11-15T06:13:05.126Z,8.90
2022-11-15T06:18:37.670Z,8.80
2022-11-15T06:21:23.902Z,9.00
2022-11-15T06:24:09.335Z,9.00
2022-11-15T06:26:55.063Z,8.90
2022-11-15T06:29:40.620Z,8.90
2022-11-15T06:32:26.090Z,9.10
2022-11-15T06:38:07.843Z,8.80
2022-11-15T06:40:53.004Z,8.70
2022-11-15T06:43:38.996Z,8.90
2022-11-15T06:46:24.385Z,8.70
2022-11-15T06:51:55.760Z,8.90
2022-11-15T06:54:41.237Z,8.80
2022-11-15T06:57:26.626Z,8.60
2022-11-15T07:00:12.684Z,8.40
2022-11-15T07:03:01.906Z,8.50
2022-11-15T07:06:02.759Z,8.60
2022-11-15T07:08:51.126Z,8.60
2022-11-15T07:22:42.180Z,8.40
2022-11-15T07:25:27.719Z,8.80
2022-11-15T07:28:13.753Z,8.40
2022-11-15T07:31:07.620Z,8.60
2022-11-15T07:42:30.369Z,8.60
2022-11-15T07:45:16.187Z,8.50
2022-11-15T07:48:02.174Z,8.50
2022-11-15T07:59:07.426Z,8.60
2022-11-15T08:01:52.797Z,8.40
2022-11-15T08:07:25.105Z,8.80
2022-11-15T08:13:04.489Z,8.80
2022-11-15T08:15:53.504Z,8.90
2022-11-15T08:18:43.123Z,8.30
2022-11-15T08:27:01.278Z,9.20
2022-11-15T08:29:47.149Z,8.60
2022-11-15T08:35:24.779Z,9.30
2022-11-15T08:41:07.020Z,9.00
2022-11-15T08:49:24.776Z,9.60
2022-11-15T08:52:10.183Z,9.90
2022-11-15T08:54:55.663Z,9.70
2022-11-15T09:00:27.238Z,9.10
2022-11-15T09:03:12.600Z,9.30
2022-11-15T09:06:00.237Z,9.60
2022-11-15T09:14:20.189Z,9.80
2022-11-15T09:17:09.703Z,10.10
2022-11-15T09:25:27.816Z,10.30
2022-11-15T09:31:01.515Z,10.30
2022-11-15T09:33:47.512Z,10.30
2022-11-15T09:36:33.292Z,10.10
2022-11-15T09:39:18.668Z,10.50
2022-11-15T09:42:49.422Z,11.00
2022-11-15T09:46:10.915Z,11.30
2022-11-15T09:49:09.606Z,11.00
2022-11-15T09:51:57.709Z,11.20
2022-11-15T09:54:53.435Z,10.80
2022-11-15T09:57:35.995Z,10.90
2022-11-15T10:00:45.338Z,10.90
2022-11-15T10:03:31.050Z,11.00
2022-11-15T10:06:05.239Z,11.10
2022-11-15T10:09:23.946Z,10.80
2022-11-15T10:11:51.352Z,10.70
2022-11-15T10:14:25.022Z,10.40
2022-11-15T10:17:39.900Z,12.00
2022-11-15T10:20:27.562Z,10.80
2022-11-15T10:23:01.407Z,10.90
2022-11-15T10:25:36.148Z,11.30
2022-11-15T10:28:38.590Z,11.50
2022-11-15T10:31:27.183Z,12.40
2022-11-15T10:34:13.852Z,11.90
2022-11-15T10:36:50.322Z,11.80
2022-11-15T10:44:22.627Z,11.30
2022-11-15T10:46:55.443Z,11.20
2022-11-15T10:49:30.921Z,10.90
2022-11-15T10:52:12.355Z,11.20
2022-11-15T10:54:45.286Z,11.30
2022-11-15T10:57:19.652Z,11.80
2022-11-15T10:59:53.950Z,11.40
2022-11-15T11:03:08.136Z,11.60
2022-11-15T11:05:41.715Z,11.80
2022-11-15T11:08:12.707Z,11.50
2022-11-15T11:11:01.371Z,11.40
2022-11-15T11:13:39.413Z,11.60
2022-11-15T11:16:22.394Z,11.80
2022-11-15T11:19:12.298Z,11.50
2022-11-15T11:22:34.733Z,11.50
2022-11-15T11:25:31.648Z,11.90
2022-11-15T11:28:20.026Z,11.90
2022-11-15T11:31:28.225Z,11.80
2022-11-15T11:34:16.614Z,11.90
2022-11-15T11:36:51.558Z,12.00
2022-11-15T11:40:00.173Z,13.00
2022-11-15T11:43:00.095Z,12.00
2022-11-15T11:45:54.052Z,11.90
2022-11-15T11:48:46.698Z,12.30
2022-11-15T11:51:33.335Z,12.00
2022-11-15T11:54:43.828Z,12.00
2022-11-15T11:57:29.824Z,12.40
2022-11-15T12:00:20.162Z,12.30
2022-11-15T12:03:26.594Z,12.30
2022-11-15T12:06:03.110Z,12.40
2022-11-15T12:08:47.187Z,12.40
2022-11-15T12:12:03.781Z,13.40
2022-11-15T12:14:55.416Z,12.70
2022-11-15T12:17:26.404Z,13.20
2022-11-15T12:20:20.579Z,13.50
2022-11-15T12:22:57.976Z,11.80
2022-11-15T12:25:41.951Z,12.90
2022-11-15T12:30:53.051Z,13.70
2022-11-15T12:33:44.446Z,14.00
2022-11-15T12:36:31.726Z,14.20
2022-11-15T12:39:01.585Z,13.80
2022-11-15T12:41:31.478Z,13.50
2022-11-15T12:44:00.248Z,13.70
2022-11-15T12:46:30.190Z,13.50
2022-11-15T12:49:09.269Z,13.60
2022-11-15T12:51:48.525Z,13.60
2022-11-15T12:54:24.759Z,14.20
2022-11-15T12:57:04.027Z,13.40
2022-11-15T12:59:56.264Z,14.80
2022-11-15T13:02:37.537Z,13.40
2022-11-15T13:05:16.593Z,13.30
2022-11-15T13:10:13.773Z,13.20
2022-11-15T13:12:46.566Z,12.90
2022-11-15T13:15:13.447Z,12.80
2022-11-15T13:17:54.242Z,13.10
2022-11-15T13:20:32.110Z,13.30
2022-11-15T13:23:17.549Z,13.20
2022-11-15T13:26:11.405Z,13.20
2022-11-15T13:28:55.584Z,13.00
2022-11-15T13:31:29.890Z,13.20
2022-11-15T13:34:10.053Z,13.20
2022-11-15T13:36:44.859Z,12.90
2022-11-15T13:39:34.763Z,13.00
2022-11-15T13:42:02.088Z,13.00
2022-11-15T13:44:32.898Z,13.00
2022-11-15T13:47:08.240Z,12.80
2022-11-15T13:49:35.879Z,12.80
2022-11-15T13:52:08.057Z,12.70
2022-11-15T13:55:10.648Z,12.70
2022-11-15T13:57:52.226Z,12.70
2022-11-15T14:00:45.719Z,12.90
2022-11-15T14:03:32.321Z,12.80
2022-11-15T14:06:17.159Z,12.80
2022-11-15T14:08:58.996Z,12.80
2022-11-15T14:11:26.925Z,14.60
2022-11-15T14:14:16.600Z,12.90
2022-11-15T14:16:54.468Z,12.40
2022-11-15T14:19:21.261Z,12.70
2022-11-15T14:22:14.765Z,12.60
2022-11-15T14:24:46.130Z,12.80
2022-11-15T14:27:25.145Z,12.70
2022-11-15T14:32:26.930Z,12.40
2022-11-15T14:35:03.632Z,12.50
2022-11-15T14:37:35.579Z,12.50
2022-11-15T14:40:07.631Z,12.80
2022-11-15T14:42:34.738Z,12.60
2022-11-15T14:45:01.683Z,13.10
2022-11-15T14:49:56.131Z,12.70
2022-11-15T14:52:32.655Z,12.80
2022-11-15T14:55:02.388Z,12.60
2022-11-15T14:57:30.781Z,12.50
2022-11-15T14:59:58.168Z,12.50
2022-11-15T15:05:26.253Z,12.40
2022-11-15T15:07:56.414Z,12.40
2022-11-15T15:13:23.953Z,12.30
2022-11-15T15:15:52.651Z,13.30
2022-11-15T15:18:20.871Z,12.20
2022-11-15T15:20:57.142Z,12.20
2022-11-15T15:23:26.573Z,12.10
2022-11-15T15:28:21.118Z,12.00
2022-11-15T15:30:48.055Z,11.90
2022-11-15T15:33:15.006Z,11.50
2022-11-15T15:35:42.640Z,11.90
2022-11-15T15:38:13.193Z,11.70
2022-11-15T15:43:10.017Z,11.80
2022-11-15T15:45:42.206Z,11.90
2022-11-15T15:48:17.467Z,12.50
2022-11-15T15:50:44.530Z,11.80
2022-11-15T15:53:13.201Z,11.90
2022-11-15T15:55:40.863Z,11.80
2022-11-15T15:58:09.103Z,11.80
2022-11-15T16:00:36.213Z,11.90
2022-11-15T16:03:03.321Z,12.00
2022-11-15T16:05:30.296Z,11.60
2022-11-15T16:07:57.262Z,11.60
2022-11-15T16:10:28.306Z,11.60
2022-11-15T16:12:57.797Z,11.20
2022-11-15T16:15:31.525Z,11.50
2022-11-15T16:18:00.917Z,11.60
2022-11-15T16:20:45.891Z,11.60
2022-11-15T16:23:16.275Z,11.50
2022-11-15T16:25:57.214Z,11.40
2022-11-15T16:28:33.896Z,11.50
2022-11-15T16:31:09.404Z,11.40
2022-11-15T16:33:37.164Z,11.40
2022-11-15T16:36:06.965Z,11.40
2022-11-15T16:38:34.535Z,11.50
2022-11-15T16:41:01.841Z,11.40
2022-11-15T16:43:28.818Z,11.30
2022-11-15T16:45:58.843Z,11.40
2022-11-15T16:48:27.981Z,11.50
2022-11-15T16:50:57.732Z,11.40
2022-11-15T16:53:26.505Z,11.40
2022-11-15T16:55:55.110Z,11.20
2022-11-15T16:58:22.423Z,11.20
2022-11-15T17:00:57.173Z,11.20
2022-11-15T17:03:25.210Z,11.30
2022-11-15T17:05:59.883Z,11.20
2022-11-15T17:08:29.914Z,11.20
2022-11-15T17:10:57.116Z,11.00
2022-11-15T17:16:37.105Z,11.00
2022-11-15T17:21:49.823Z,11.00
2022-11-15T17:24:24.163Z,11.00
2022-11-15T17:26:51.285Z,11.00
2022-11-15T17:29:18.598Z,11.00
2022-11-15T17:31:45.794Z,11.10
2022-11-15T17:34:12.686Z,11.00
2022-11-15T17:36:39.705Z,10.90
2022-11-15T17:39:06.615Z,10.80
2022-11-15T17:41:33.600Z,11.00
2022-11-15T17:44:03.006Z,10.90
2022-11-15T17:46:30.352Z,11.00
2022-11-15T17:48:57.885Z,11.10
2022-11-15T17:51:25.167Z,11.00
2022-11-15T17:53:52.960Z,11.10
2022-11-15T17:56:23.168Z,11.20
2022-11-15T17:58:55.600Z,11.20
2022-11-15T18:01:34.862Z,11.10
2022-11-15T18:04:04.935Z,12.20
2022-11-15T18:06:34.883Z,11.20
2022-11-15T18:09:03.402Z,11.30
2022-11-15T18:11:39.106Z,11.30
2022-11-15T18:14:13.161Z,11.20
2022-11-15T18:16:40.383Z,11.20
2022-11-15T18:19:14.014Z,11.20
2022-11-15T18:21:57.989Z,11.10
2022-11-15T18:24:32.468Z,11.00
2022-11-15T18:27:01.573Z,11.10
2022-11-15T18:29:28.648Z,11.00
2022-11-15T18:31:55.906Z,11.00
2022-11-15T18:34:25.414Z,11.10
2022-11-15T18:36:53.171Z,11.10
2022-11-15T18:39:20.680Z,11.00
2022-11-15T18:41:48.094Z,11.00
2022-11-15T18:44:17.366Z,11.00
2022-11-15T18:46:47.584Z,11.00
2022-11-15T18:49:16.724Z,11.00
2022-11-15T18:51:43.912Z,11.30
2022-11-15T18:54:14.704Z,11.10
2022-11-15T18:56:44.529Z,11.00
2022-11-15T18:59:11.655Z,11.20
2022-11-15T19:01:41.976Z,11.00
2022-11-15T19:04:18.377Z,11.20
2022-11-15T19:06:48.005Z,11.20
2022-11-15T19:09:17.673Z,11.10
2022-11-15T19:11:47.727Z,11.20
2022-11-15T19:14:17.350Z,11.20
2022-11-15T19:16:55.159Z,11.20
2022-11-15T19:19:28.513Z,11.10
2022-11-15T19:24:26.341Z,11.10
2022-11-15T19:26:54.786Z,11.10
2022-11-15T19:29:21.808Z,11.20
2022-11-15T19:31:48.892Z,11.30
2022-11-15T19:34:16.494Z,11.40
2022-11-15T19:36:44.919Z,11.50
2022-11-15T19:39:14.708Z,11.30
2022-11-15T19:41:43.619Z,11.40
2022-11-15T19:44:12.269Z,11.40
2022-11-15T19:46:40.003Z,11.40
2022-11-15T19:49:10.339Z,11.60
2022-11-15T19:51:38.921Z,11.60
2022-11-15T19:54:08.781Z,11.50
2022-11-15T19:59:06.751Z,11.40
2022-11-15T20:01:36.898Z,11.70
2022-11-15T20:04:04.808Z,11.60
2022-11-15T20:06:35.859Z,11.60
2022-11-15T20:09:06.341Z,11.40
2022-11-15T20:11:34.222Z,11.50
2022-11-15T20:14:04.891Z,11.40
2022-11-15T20:16:31.827Z,11.40
2022-11-15T20:18:58.891Z,11.50
2022-11-15T20:21:25.847Z,11.50
2022-11-15T20:23:53.042Z,11.50
2022-11-15T20:26:20.660Z,11.60
2022-11-15T20:28:48.171Z,11.50
2022-11-15T20:31:16.262Z,11.50
2022-11-15T20:33:43.234Z,12.10
2022-11-15T20:36:13.778Z,11.30
2022-11-15T20:38:40.819Z,11.30
2022-11-15T20:41:08.191Z,11.30
2022-11-15T20:43:35.348Z,11.30
2022-11-15T20:46:02.353Z,11.30
2022-11-15T20:48:29.579Z,11.30
2022-11-15T20:51:10.064Z,11.30
2022-11-15T20:53:37.150Z,11.40
2022-11-15T20:56:11.939Z,11.30
2022-11-15T20:58:39.464Z,11.20
2022-11-15T21:01:08.730Z,11.30
2022-11-15T21:03:36.747Z,11.40
2022-11-15T21:06:04.148Z,11.10
2022-11-15T21:08:51.780Z,11.20
2022-11-15T21:11:38.119Z,11.10
2022-11-15T21:14:09.305Z,11.10
2022-11-15T21:16:37.879Z,11.10
2022-11-15T21:19:06.623Z,11.10
2022-11-15T21:21:35.533Z,11.10
2022-11-15T21:24:08.990Z,11.10
2022-11-15T21:26:37.326Z,11.10
2022-11-15T21:29:04.767Z,11.10
2022-11-15T21:31:34.729Z,11.00
2022-11-15T21:34:02.798Z,11.00
2022-11-15T21:36:32.125Z,11.00
2022-11-15T21:38:59.067Z,11.10
2022-11-15T21:41:26.396Z,11.10
2022-11-15T21:44:00.540Z,11.10
2022-11-15T21:46:32.041Z,11.20
2022-11-15T21:48:59.293Z,11.30
2022-11-15T21:51:26.550Z,11.10
2022-11-15T21:53:56.416Z,10.90
2022-11-15T21:56:25.586Z,10.90
2022-11-15T21:58:54.061Z,11.00
2022-11-15T22:01:49.356Z,11.10
2022-11-15T22:04:18.782Z,11.10
2022-11-15T22:06:45.908Z,11.20
2022-11-15T22:09:12.943Z,10.90
2022-11-15T22:11:39.969Z,11.00
2022-11-15T22:14:07.168Z,10.90
2022-11-15T22:16:34.234Z,10.90
2022-11-15T22:19:01.452Z,12.00
2022-11-15T22:21:28.462Z,10.70
2022-11-15T22:23:55.419Z,10.90
2022-11-15T22:26:23.990Z,10.80
2022-11-15T22:28:51.742Z,11.00
2022-11-15T22:31:18.732Z,11.00
2022-11-15T22:33:45.840Z,11.00
2022-11-15T22:36:13.434Z,11.00
2022-11-15T22:38:40.879Z,11.00
2022-11-15T22:41:08.479Z,11.00
2022-11-15T22:43:35.881Z,11.00
2022-11-15T22:46:04.679Z,11.10
2022-11-15T22:48:36.321Z,10.90
2022-11-15T22:51:04.744Z,11.00
2022-11-15T22:53:31.791Z,10.70
2022-11-15T22:56:02.405Z,10.80
2022-11-15T22:58:31.759Z,10.80
2022-11-15T23:01:02.602Z,10.60
2022-11-15T23:03:30.867Z,10.70
2022-11-15T23:06:06.561Z,10.50
2022-11-15T23:08:34.281Z,10.60
2022-11-15T23:11:22.558Z,10.50
2022-11-15T23:13:53.205Z,10.80
2022-11-15T23:16:23.120Z,10.80
2022-11-15T23:18:53.968Z,10.90
2022-11-15T23:21:58.008Z,10.80
2022-11-15T23:24:25.538Z,10.70
2022-11-15T23:26:56.258Z,10.60
2022-11-15T23:29:25.052Z,10.50
2022-11-15T23:32:12.068Z,10.70
2022-11-15T23:34:42.766Z,10.80
2022-11-15T23:37:13.716Z,10.90
2022-11-15T23:39:40.892Z,10.80
2022-11-15T23:42:09.541Z,10.90
2022-11-15T23:44:37.113Z,10.80
2022-11-15T23:47:04.126Z,10.70
2022-11-15T23:49:31.025Z,10.70
2022-11-15T23:51:57.980Z,10.70
2022-11-15T23:54:24.929Z,10.40
2022-11-15T23:56:51.877Z,10.80
2022-11-15T23:59:18.823Z,10.70
